createdAt,value
2023-12-05T00:00:16.632Z,-2.32
2023-12-05T00:02:45.802Z,-2.31
2023-12-05T00:05:14.291Z,-2.31
2023-12-05T00:07:44.515Z,-2.30
2023-12-05T00:10:13.036Z,-2.28
2023-12-05T00:12:41.654Z,-2.27
2023-12-05T00:15:10.328Z,-2.27
2023-12-05T00:17:38.503Z,-2.28
2023-12-05T00:20:07.673Z,-2.28
2023-12-05T00:22:37.714Z,-2.28
2023-12-05T00:25:06.479Z,-2.28
2023-12-05T00:27:35.449Z,-2.27
2023-12-05T00:30:04.665Z,-2.25
2023-12-05T00:32:33.151Z,-2.24
2023-12-05T00:35:01.451Z,-2.25
2023-12-05T00:37:30.013Z,-2.28
2023-12-05T00:39:58.224Z,-2.32
2023-12-05T00:42:26.715Z,-2.36
2023-12-05T00:44:54.939Z,-2.39
2023-12-05T00:47:23.230Z,-2.43
2023-12-05T00:49:51.424Z,-2.47
2023-12-05T00:52:19.865Z,-2.53
2023-12-05T00:54:48.093Z,-2.58
2023-12-05T00:57:16.281Z,-2.65
2023-12-05T00:59:44.572Z,-2.72
2023-12-05T01:02:12.862Z,-2.78
2023-12-05T01:04:41.238Z,-2.85
2023-12-05T01:07:13.945Z,-2.90
2023-12-05T01:09:42.222Z,-2.95
2023-12-05T01:12:12.003Z,-3.01
2023-12-05T01:14:40.380Z,-3.05
2023-12-05T01:17:08.909Z,-3.11
2023-12-05T01:19:39.107Z,-3.17
2023-12-05T01:22:07.610Z,-3.23
2023-12-05T01:24:35.945Z,-3.29
2023-12-05T01:27:05.086Z,-3.32
2023-12-05T01:29:33.537Z,-3.37
2023-12-05T01:32:01.693Z,-3.40
2023-12-05T01:34:29.982Z,-3.43
2023-12-05T01:36:58.324Z,-3.48
2023-12-05T01:39:26.603Z,-3.53
2023-12-05T01:41:55.088Z,-3.58
2023-12-05T01:44:24.013Z,-3.63
2023-12-05T01:46:52.329Z,-3.66
2023-12-05T01:49:28.753Z,-3.68
2023-12-05T01:51:58.512Z,-3.71
2023-12-05T01:54:28.952Z,-3.74
2023-12-05T01:56:57.607Z,-3.78
2023-12-05T01:59:26.025Z,-3.82
2023-12-05T02:01:54.538Z,-3.87
2023-12-05T02:04:23.157Z,-3.90
2023-12-05T02:06:51.525Z,-3.93
2023-12-05T02:09:20.895Z,-3.97
2023-12-05T02:11:49.321Z,-4.02
2023-12-05T02:14:17.701Z,-4.06
2023-12-05T02:16:53.122Z,-4.11
2023-12-05T02:20:08.415Z,-4.14
2023-12-05T02:22:45.022Z,-4.17
2023-12-05T02:25:44.494Z,-4.19
2023-12-05T02:28:12.899Z,-4.20
2023-12-05T02:30:41.269Z,-4.25
2023-12-05T02:33:09.600Z,-4.30
2023-12-05T02:35:38.577Z,-4.35
2023-12-05T02:38:10.447Z,-4.40
2023-12-05T02:40:53.736Z,-4.43
2023-12-05T02:43:31.247Z,-4.44
2023-12-05T02:46:08.653Z,-4.45
2023-12-05T02:48:38.912Z,-4.46
2023-12-05T02:51:07.530Z,-4.48
2023-12-05T02:53:35.965Z,-4.50
2023-12-05T02:56:04.979Z,-4.53
2023-12-05T02:58:33.212Z,-4.56
2023-12-05T03:01:03.265Z,-4.60
2023-12-05T03:03:31.662Z,-4.63
2023-12-05T03:06:00.093Z,-4.66
2023-12-05T03:08:28.515Z,-4.69
2023-12-05T03:11:03.398Z,-4.71
2023-12-05T03:13:35.990Z,-4.74
2023-12-05T03:16:04.883Z,-4.76
2023-12-05T03:18:33.484Z,-4.77
2023-12-05T03:21:01.710Z,-4.79
2023-12-05T03:23:30.407Z,-4.79
2023-12-05T03:25:58.791Z,-4.80
2023-12-05T03:28:27.100Z,-4.80
2023-12-05T03:30:55.422Z,-4.82
2023-12-05T03:33:23.655Z,-4.85
2023-12-05T03:35:51.973Z,-4.88
2023-12-05T03:38:20.351Z,-4.91
2023-12-05T03:40:48.656Z,-4.93
2023-12-05T03:43:16.957Z,-4.95
2023-12-05T03:45:45.317Z,-4.99
2023-12-05T03:48:13.625Z,-5.01
2023-12-05T03:50:42.128Z,-5.05
2023-12-05T03:53:10.347Z,-5.06
2023-12-05T03:55:38.633Z,-5.08
2023-12-05T03:58:06.830Z,-5.09
2023-12-05T04:00:35.096Z,-5.10
2023-12-05T04:03:03.403Z,-5.12
2023-12-05T04:05:31.914Z,-5.14
2023-12-05T04:08:00.267Z,-5.17
2023-12-05T04:10:28.433Z,-5.20
2023-12-05T04:12:57.658Z,-5.25
2023-12-05T04:15:26.024Z,-5.29
2023-12-05T04:17:54.328Z,-5.31
2023-12-05T04:20:23.113Z,-5.35
2023-12-05T04:22:51.471Z,-5.37
2023-12-05T04:25:19.934Z,-5.40
2023-12-05T04:27:48.284Z,-5.44
2023-12-05T04:30:17.197Z,-5.49
2023-12-05T04:32:46.249Z,-5.53
2023-12-05T04:35:16.530Z,-5.57
2023-12-05T04:37:44.842Z,-5.62
2023-12-05T04:40:13.509Z,-5.69
2023-12-05T04:42:41.753Z,-5.72
2023-12-05T04:45:10.257Z,-5.72
2023-12-05T04:47:38.526Z,-5.73
2023-12-05T04:50:07.375Z,-5.74
2023-12-05T04:52:35.694Z,-5.79
2023-12-05T04:55:04.781Z,-5.81
2023-12-05T04:57:32.965Z,-5.82
2023-12-05T05:00:01.465Z,-5.82
2023-12-05T05:02:29.684Z,-5.81
2023-12-05T05:04:58.086Z,-5.80
2023-12-05T05:07:26.461Z,-5.80
2023-12-05T05:09:54.762Z,-5.81
2023-12-05T05:12:24.019Z,-5.81
2023-12-05T05:14:52.304Z,-5.82
2023-12-05T05:17:20.612Z,-5.83
2023-12-05T05:19:49.328Z,-5.85
2023-12-05T05:22:17.956Z,-5.85
2023-12-05T05:24:46.187Z,-5.85
2023-12-05T05:27:15.397Z,-5.85
2023-12-05T05:29:43.631Z,-5.86
2023-12-05T05:32:12.041Z,-5.88
2023-12-05T05:34:40.465Z,-5.90
2023-12-05T05:37:08.724Z,-5.90
2023-12-05T05:39:37.130Z,-5.88
2023-12-05T05:42:05.882Z,-5.86
2023-12-05T05:44:34.656Z,-5.85
2023-12-05T05:47:02.916Z,-5.84
2023-12-05T05:49:31.379Z,-5.82
2023-12-05T05:51:59.924Z,-5.81
2023-12-05T05:54:28.233Z,-5.80
2023-12-05T05:56:56.569Z,-5.76
2023-12-05T05:59:24.787Z,-5.71
2023-12-05T06:01:53.122Z,-5.66
2023-12-05T06:04:21.785Z,-5.60
2023-12-05T06:06:50.555Z,-5.53
2023-12-05T06:09:18.817Z,-5.46
2023-12-05T06:11:47.467Z,-5.38
2023-12-05T06:14:15.953Z,-5.28
2023-12-05T06:16:44.404Z,-5.17
2023-12-05T06:19:12.986Z,-5.09
2023-12-05T06:21:41.504Z,-5.02
2023-12-05T06:24:11.255Z,-4.94
2023-12-05T06:26:39.965Z,-4.86
2023-12-05T06:29:08.294Z,-4.76
2023-12-05T06:31:37.266Z,-4.66
2023-12-05T06:34:05.568Z,-4.55
2023-12-05T06:36:34.123Z,-4.46
2023-12-05T06:39:02.693Z,-4.36
2023-12-05T06:41:30.897Z,-4.27
2023-12-05T06:43:59.225Z,-4.19
2023-12-05T06:46:27.774Z,-4.11
2023-12-05T06:48:56.270Z,-4.03
2023-12-05T06:51:24.638Z,-3.93
2023-12-05T06:53:52.911Z,-3.81
2023-12-05T06:56:21.826Z,-3.73
2023-12-05T06:58:50.326Z,-3.64
2023-12-05T07:01:19.517Z,-3.57
2023-12-05T07:03:53.684Z,-3.50
2023-12-05T07:06:25.751Z,-3.41
2023-12-05T07:08:54.346Z,-3.30
2023-12-05T07:11:22.840Z,-3.19
2023-12-05T07:13:51.117Z,-3.08
2023-12-05T07:16:19.363Z,-2.97
2023-12-05T07:18:47.989Z,-2.86
2023-12-05T07:21:16.520Z,-2.78
2023-12-05T07:23:52.206Z,-2.66
2023-12-05T07:26:24.328Z,-2.53
2023-12-05T07:28:52.649Z,-2.41
2023-12-05T07:31:21.758Z,-2.29
2023-12-05T07:33:50.474Z,-2.17
2023-12-05T07:36:19.096Z,-2.06
2023-12-05T07:38:47.553Z,-1.99
2023-12-05T07:41:22.669Z,-1.91
2023-12-05T07:43:51.029Z,-1.81
2023-12-05T07:46:19.752Z,-1.72
2023-12-05T07:48:48.995Z,-1.64
2023-12-05T07:51:19.596Z,-1.56
2023-12-05T07:53:50.232Z,-1.46
2023-12-05T07:56:19.331Z,-1.37
2023-12-05T07:58:47.650Z,-1.25
2023-12-05T08:01:15.903Z,-1.12
2023-12-05T08:03:44.493Z,-1.00
2023-12-05T08:06:13.524Z,-0.90
2023-12-05T08:08:41.935Z,-0.79
2023-12-05T08:11:13.005Z,-0.66
2023-12-05T08:13:42.310Z,-0.54
2023-12-05T08:16:11.095Z,-0.45
2023-12-05T08:18:39.594Z,-0.38
2023-12-05T08:21:08.375Z,-0.29
2023-12-05T08:23:36.764Z,-0.18
2023-12-05T08:26:05.985Z,-0.14
2023-12-05T08:28:35.789Z,-0.11
2023-12-05T08:31:04.645Z,-0.03
2023-12-05T08:33:33.205Z,0.01
2023-12-05T08:36:02.840Z,0.06
2023-12-05T08:38:31.252Z,0.11
2023-12-05T08:40:59.599Z,0.10
2023-12-05T08:43:28.097Z,0.12
2023-12-05T08:45:56.289Z,0.19
2023-12-05T08:48:24.813Z,0.24
2023-12-05T08:50:53.378Z,0.30
2023-12-05T08:53:22.143Z,0.36
2023-12-05T08:55:50.684Z,0.43
2023-12-05T08:58:19.010Z,0.51
2023-12-05T09:00:47.469Z,0.57
2023-12-05T09:03:15.877Z,0.65
2023-12-05T09:05:44.265Z,0.76
2023-12-05T09:08:12.804Z,0.88
2023-12-05T09:10:41.125Z,0.95
2023-12-05T09:13:09.635Z,1.03
2023-12-05T09:15:38.983Z,1.16
2023-12-05T09:18:07.343Z,1.34
2023-12-05T09:20:35.564Z,1.47
2023-12-05T09:23:04.100Z,1.48
2023-12-05T09:25:32.414Z,1.43
2023-12-05T09:28:00.942Z,1.32
2023-12-05T09:30:29.813Z,1.17
2023-12-05T09:32:58.368Z,1.08
2023-12-05T09:35:27.226Z,1.09
2023-12-05T09:37:55.524Z,1.11
2023-12-05T09:40:24.176Z,1.09
2023-12-05T09:42:53.624Z,1.03
2023-12-05T09:45:22.565Z,0.98
2023-12-05T09:47:51.825Z,0.92
2023-12-05T09:50:20.816Z,0.86
2023-12-05T09:52:49.442Z,0.79
2023-12-05T09:55:18.329Z,0.76
2023-12-05T09:57:47.267Z,0.69
2023-12-05T10:00:16.017Z,0.64
2023-12-05T10:02:47.556Z,0.57
2023-12-05T10:05:17.494Z,0.46
2023-12-05T10:07:47.750Z,0.37
2023-12-05T10:10:20.135Z,0.28
2023-12-05T10:12:49.670Z,0.22
2023-12-05T10:15:18.264Z,0.17
2023-12-05T10:17:48.494Z,0.13
2023-12-05T10:20:17.131Z,0.14
2023-12-05T10:22:45.720Z,0.16
2023-12-05T10:25:16.416Z,0.16
2023-12-05T10:27:44.707Z,0.11
2023-12-05T10:30:15.649Z,0.02
2023-12-05T10:32:46.096Z,-0.07
2023-12-05T10:35:14.841Z,-0.10
2023-12-05T10:37:43.860Z,-0.12
2023-12-05T10:40:13.046Z,-0.14
2023-12-05T10:42:41.458Z,-0.16
2023-12-05T10:45:10.863Z,-0.17
2023-12-05T10:47:39.171Z,-0.20
2023-12-05T10:50:08.067Z,-0.22
2023-12-05T10:52:36.659Z,-0.22
2023-12-05T10:55:05.563Z,-0.23
2023-12-05T10:57:37.771Z,-0.29
2023-12-05T11:00:07.740Z,-0.37
2023-12-05T11:02:37.703Z,-0.44
2023-12-05T11:05:06.781Z,-0.52
2023-12-05T11:07:35.075Z,-0.54
2023-12-05T11:10:04.528Z,-0.51
2023-12-05T11:12:34.220Z,-0.48
2023-12-05T11:15:02.553Z,-0.48
2023-12-05T11:17:40.071Z,-0.48
2023-12-05T11:20:31.647Z,-0.48
2023-12-05T11:23:07.520Z,-0.49
2023-12-05T11:26:03.097Z,-0.53
2023-12-05T11:28:48.883Z,-0.56
2023-12-05T11:31:27.153Z,-0.53
2023-12-05T11:34:04.198Z,-0.50
2023-12-05T11:37:10.625Z,-0.47
2023-12-05T11:39:39.214Z,-0.46
2023-12-05T11:42:11.708Z,-0.49
2023-12-05T11:44:40.409Z,-0.56
2023-12-05T11:47:15.049Z,-0.61
2023-12-05T11:49:56.625Z,-0.66
2023-12-05T11:52:39.119Z,-0.69
2023-12-05T11:55:08.490Z,-0.69
2023-12-05T11:57:36.954Z,-0.71
2023-12-05T12:00:06.091Z,-0.74
2023-12-05T12:02:43.736Z,-0.75
2023-12-05T12:05:13.841Z,-0.76
2023-12-05T12:07:58.266Z,-0.76
2023-12-05T12:10:29.848Z,-0.77
2023-12-05T12:12:59.946Z,-0.75
2023-12-05T12:15:37.991Z,-0.71
2023-12-05T12:18:06.648Z,-0.66
2023-12-05T12:20:35.151Z,-0.60
2023-12-05T12:23:03.758Z,-0.55
2023-12-05T12:25:32.471Z,-0.51
2023-12-05T12:28:01.639Z,-0.49
2023-12-05T12:30:35.689Z,-0.49
2023-12-05T12:33:07.509Z,-0.52
2023-12-05T12:35:36.423Z,-0.57
2023-12-05T12:38:04.884Z,-0.61
2023-12-05T12:40:35.305Z,-0.65
2023-12-05T12:43:04.647Z,-0.68
2023-12-05T12:45:33.139Z,-0.73
2023-12-05T12:48:05.120Z,-0.77
2023-12-05T12:50:33.596Z,-0.80
2023-12-05T12:53:02.143Z,-0.83
2023-12-05T12:55:30.466Z,-0.87
2023-12-05T12:58:02.952Z,-0.93
2023-12-05T13:00:38.605Z,-0.98
2023-12-05T13:03:07.710Z,-1.03
2023-12-05T13:05:37.640Z,-1.06
2023-12-05T13:08:06.428Z,-1.10
2023-12-05T13:10:34.905Z,-1.14
2023-12-05T13:13:04.026Z,-1.18
2023-12-05T13:15:32.834Z,-1.21
2023-12-05T13:18:05.783Z,-1.23
2023-12-05T13:20:48.754Z,-1.24
2023-12-05T13:23:18.604Z,-1.26
2023-12-05T13:25:46.907Z,-1.27
2023-12-05T13:28:15.168Z,-1.28
2023-12-05T13:30:46.296Z,-1.31
2023-12-05T13:33:16.703Z,-1.33
2023-12-05T13:35:45.398Z,-1.35
2023-12-05T13:38:13.935Z,-1.38
2023-12-05T13:40:42.623Z,-1.41
2023-12-05T13:43:10.956Z,-1.45
2023-12-05T13:45:39.283Z,-1.49
2023-12-05T13:48:07.956Z,-1.51
2023-12-05T13:50:36.372Z,-1.54
2023-12-05T13:53:04.919Z,-1.57
2023-12-05T13:55:33.308Z,-1.60
2023-12-05T13:58:01.644Z,-1.63
2023-12-05T14:00:30.086Z,-1.66
2023-12-05T14:02:58.690Z,-1.70
2023-12-05T14:05:27.471Z,-1.75
2023-12-05T14:07:56.151Z,-1.80
2023-12-05T14:10:24.554Z,-1.84
2023-12-05T14:12:53.664Z,-1.87
2023-12-05T14:15:25.080Z,-1.89
2023-12-05T14:17:54.753Z,-1.91
2023-12-05T14:20:23.828Z,-1.92
2023-12-05T14:22:52.168Z,-1.95
2023-12-05T14:25:20.430Z,-1.98
2023-12-05T14:27:48.849Z,-2.03
2023-12-05T14:30:17.692Z,-2.06
2023-12-05T14:32:46.026Z,-2.11
2023-12-05T14:35:14.568Z,-2.14
2023-12-05T14:37:42.876Z,-2.18
2023-12-05T14:40:11.799Z,-2.20
2023-12-05T14:42:40.156Z,-2.21
2023-12-05T14:45:09.884Z,-2.23
2023-12-05T14:47:38.574Z,-2.22
2023-12-05T14:50:07.126Z,-2.22
2023-12-05T14:52:36.485Z,-2.23
2023-12-05T14:55:05.236Z,-2.26
2023-12-05T14:57:33.678Z,-2.28
2023-12-05T15:00:02.614Z,-2.31
2023-12-05T15:02:31.198Z,-2.36
2023-12-05T15:04:59.766Z,-2.41
2023-12-05T15:07:28.386Z,-2.45
2023-12-05T15:09:56.767Z,-2.47
2023-12-05T15:12:26.081Z,-2.49
2023-12-05T15:14:58.080Z,-2.51
2023-12-05T15:17:26.413Z,-2.53
2023-12-05T15:20:18.587Z,-2.56
2023-12-05T15:22:44.186Z,-2.56
2023-12-05T15:25:12.774Z,-2.57
2023-12-05T15:27:41.291Z,-2.58
2023-12-05T15:30:10.504Z,-2.61
2023-12-05T15:32:39.386Z,-2.63
2023-12-05T15:35:08.200Z,-2.65
2023-12-05T15:37:36.905Z,-2.67
2023-12-05T15:40:08.172Z,-2.67
2023-12-05T15:42:36.475Z,-2.65
2023-12-05T15:45:06.454Z,-2.64
2023-12-05T15:47:35.702Z,-2.64
2023-12-05T15:50:06.257Z,-2.65
2023-12-05T15:52:37.365Z,-2.68
2023-12-05T15:55:07.122Z,-2.72
2023-12-05T15:57:36.292Z,-2.76
2023-12-05T16:00:06.388Z,-2.77
2023-12-05T16:02:42.983Z,-2.79
2023-12-05T16:05:12.950Z,-2.80
2023-12-05T16:07:41.905Z,-2.82
2023-12-05T16:10:11.189Z,-2.83
2023-12-05T16:12:39.741Z,-2.85
2023-12-05T16:15:08.763Z,-2.87
2023-12-05T16:17:37.406Z,-2.90
2023-12-05T16:20:06.948Z,-2.93
2023-12-05T16:22:35.403Z,-2.94
2023-12-05T16:25:04.439Z,-2.95
2023-12-05T16:27:36.249Z,-2.95
2023-12-05T16:30:07.151Z,-2.95
2023-12-05T16:32:36.109Z,-2.94
2023-12-05T16:35:05.396Z,-2.94
2023-12-05T16:37:33.839Z,-2.95
2023-12-05T16:40:02.523Z,-2.96
2023-12-05T16:42:31.080Z,-2.96
2023-12-05T16:44:59.892Z,-2.95
2023-12-05T16:47:28.503Z,-2.94
2023-12-05T16:49:57.063Z,-2.94
2023-12-05T16:52:25.665Z,-2.94
2023-12-05T16:54:54.038Z,-2.96
2023-12-05T16:57:25.412Z,-2.97
2023-12-05T16:59:55.526Z,-2.98
2023-12-05T17:02:23.894Z,-2.98
2023-12-05T17:04:52.672Z,-3.00
2023-12-05T17:07:21.526Z,-3.00
2023-12-05T17:09:50.255Z,-3.01
2023-12-05T17:12:18.869Z,-3.03
2023-12-05T17:14:47.732Z,-3.06
2023-12-05T17:17:16.500Z,-3.08
2023-12-05T17:19:45.288Z,-3.10
2023-12-05T17:22:13.773Z,-3.11
2023-12-05T17:24:44.970Z,-3.12
2023-12-05T17:27:14.567Z,-3.12
2023-12-05T17:29:43.603Z,-3.13
2023-12-05T17:32:13.406Z,-3.15
2023-12-05T17:34:42.823Z,-3.18
2023-12-05T17:37:11.805Z,-3.21
2023-12-05T17:39:40.874Z,-3.24
2023-12-05T17:42:09.369Z,-3.28
2023-12-05T17:44:37.589Z,-3.29
2023-12-05T17:47:05.946Z,-3.30
2023-12-05T17:49:34.494Z,-3.31
2023-12-05T17:52:03.399Z,-3.31
2023-12-05T17:54:31.882Z,-3.32
2023-12-05T17:57:00.618Z,-3.32
2023-12-05T17:59:29.246Z,-3.34
2023-12-05T18:01:58.690Z,-3.36
2023-12-05T18:04:27.276Z,-3.37
2023-12-05T18:07:49.727Z,-3.38
2023-12-05T18:09:44.553Z,-3.38
2023-12-05T18:12:12.890Z,-3.38
2023-12-05T18:14:41.184Z,-3.38
2023-12-05T18:17:09.617Z,-3.38
2023-12-05T18:19:38.704Z,-3.39
2023-12-05T18:22:07.339Z,-3.41
2023-12-05T18:24:35.741Z,-3.41
2023-12-05T18:27:04.701Z,-3.42
2023-12-05T18:29:33.423Z,-3.42
2023-12-05T18:32:02.010Z,-3.43
2023-12-05T18:34:30.699Z,-3.44
2023-12-05T18:36:59.315Z,-3.46
2023-12-05T18:39:30.527Z,-3.48
2023-12-05T18:41:59.397Z,-3.47
2023-12-05T18:44:30.388Z,-3.47
2023-12-05T18:46:58.874Z,-3.45
2023-12-05T18:49:27.472Z,-3.43
2023-12-05T18:51:56.732Z,-3.42
2023-12-05T18:54:25.173Z,-3.39
2023-12-05T18:56:53.463Z,-3.38
2023-12-05T18:59:21.952Z,-3.36
2023-12-05T19:01:51.097Z,-3.37
2023-12-05T19:04:19.620Z,-3.36
2023-12-05T19:06:49.725Z,-3.36
2023-12-05T19:09:18.984Z,-3.35
2023-12-05T19:11:47.360Z,-3.33
2023-12-05T19:14:16.759Z,-3.31
2023-12-05T19:16:45.403Z,-3.29
2023-12-05T19:19:14.068Z,-3.27
2023-12-05T19:21:47.288Z,-3.26
2023-12-05T19:24:15.996Z,-3.24
2023-12-05T19:26:44.734Z,-3.23
2023-12-05T19:29:13.477Z,-3.21
2023-12-05T19:31:42.240Z,-3.18
2023-12-05T19:34:10.761Z,-3.15
2023-12-05T19:36:39.360Z,-3.11
2023-12-05T19:39:09.233Z,-3.10
2023-12-05T19:41:37.806Z,-3.08
2023-12-05T19:44:06.262Z,-3.06
2023-12-05T19:46:34.743Z,-3.04
2023-12-05T19:49:04.611Z,-3.00
2023-12-05T19:51:33.540Z,-2.96
2023-12-05T19:54:02.290Z,-2.92
2023-12-05T19:56:30.856Z,-2.90
2023-12-05T19:58:59.222Z,-2.89
2023-12-05T20:01:27.882Z,-2.88
2023-12-05T20:03:56.785Z,-2.88
2023-12-05T20:06:25.364Z,-2.87
2023-12-05T20:08:53.778Z,-2.86
2023-12-05T20:11:22.589Z,-2.84
2023-12-05T20:13:51.649Z,-2.82
2023-12-05T20:16:19.939Z,-2.82
2023-12-05T20:18:50.707Z,-2.81
2023-12-05T20:21:19.128Z,-2.81
2023-12-05T20:23:48.406Z,-2.81
2023-12-05T20:26:16.607Z,-2.80
2023-12-05T20:28:45.284Z,-2.80
2023-12-05T20:31:14.015Z,-2.78
2023-12-05T20:33:47.564Z,-2.78
2023-12-05T20:36:16.698Z,-2.78
2023-12-05T20:38:45.222Z,-2.79
2023-12-05T20:41:13.522Z,-2.81
2023-12-05T20:43:42.264Z,-2.84
2023-12-05T20:46:10.514Z,-2.86
2023-12-05T20:48:38.811Z,-2.87
2023-12-05T20:51:07.295Z,-2.88
2023-12-05T20:53:35.845Z,-2.88
2023-12-05T20:56:04.941Z,-2.89
2023-12-05T20:58:33.631Z,-2.90
2023-12-05T21:01:03.111Z,-2.93
2023-12-05T21:03:31.781Z,-2.95
2023-12-05T21:06:00.058Z,-2.96
2023-12-05T21:09:08.910Z,-2.96
2023-12-05T21:11:17.968Z,-2.96
2023-12-05T21:13:47.659Z,-2.96
2023-12-05T21:16:16.460Z,-2.96
2023-12-05T21:18:45.198Z,-2.98
2023-12-05T21:21:13.876Z,-3.00
2023-12-05T21:23:43.159Z,-3.00
2023-12-05T21:26:11.523Z,-3.00
2023-12-05T21:28:39.724Z,-3.01
2023-12-05T21:31:08.175Z,-3.00
2023-12-05T21:33:36.637Z,-3.01
2023-12-05T21:36:05.587Z,-3.02
2023-12-05T21:38:34.031Z,-3.03
2023-12-05T21:41:02.448Z,-3.04
2023-12-05T21:43:30.925Z,-3.04
2023-12-05T21:45:59.354Z,-3.04
2023-12-05T21:48:28.227Z,-3.03
2023-12-05T21:50:56.605Z,-3.03
2023-12-05T21:53:25.110Z,-3.04
2023-12-05T21:55:53.377Z,-3.04
2023-12-05T21:58:21.938Z,-3.05
2023-12-05T22:00:50.488Z,-3.04
2023-12-05T22:03:19.622Z,-3.02
2023-12-05T22:05:47.954Z,-3.00
2023-12-05T22:08:16.276Z,-2.99
2023-12-05T22:10:44.498Z,-2.98
2023-12-05T22:13:12.880Z,-2.97
2023-12-05T22:15:41.393Z,-2.97
2023-12-05T22:18:09.799Z,-2.97
2023-12-05T22:20:38.854Z,-2.97
2023-12-05T22:23:07.066Z,-2.96
2023-12-05T22:25:35.577Z,-2.96
2023-12-05T22:28:04.277Z,-2.96
2023-12-05T22:30:32.989Z,-2.96
2023-12-05T22:33:01.213Z,-2.97
2023-12-05T22:35:29.928Z,-2.98
2023-12-05T22:37:59.337Z,-2.98
2023-12-05T22:40:28.584Z,-2.99
2023-12-05T22:42:56.805Z,-2.98
2023-12-05T22:45:25.219Z,-2.98
2023-12-05T22:47:53.553Z,-2.97
2023-12-05T22:50:21.885Z,-2.97
2023-12-05T22:52:53.611Z,-2.98
2023-12-05T22:55:22.084Z,-2.99
2023-12-05T22:57:50.715Z,-3.00
2023-12-05T23:00:27.065Z,-3.01
2023-12-05T23:02:57.425Z,-3.01
2023-12-05T23:05:26.228Z,-3.02
2023-12-05T23:07:56.078Z,-3.04
2023-12-05T23:10:24.785Z,-3.05
2023-12-05T23:12:53.194Z,-3.07
2023-12-05T23:15:21.677Z,-3.08
2023-12-05T23:17:49.877Z,-3.09
2023-12-05T23:20:18.834Z,-3.09
2023-12-05T23:22:47.794Z,-3.08
2023-12-05T23:25:17.097Z,-3.09
2023-12-05T23:27:45.413Z,-3.10
2023-12-05T23:30:14.309Z,-3.11
2023-12-05T23:32:42.561Z,-3.12
2023-12-05T23:35:10.802Z,-3.13
2023-12-05T23:37:39.287Z,-3.15
2023-12-05T23:40:08.067Z,-3.15
2023-12-05T23:42:37.363Z,-3.14
2023-12-05T23:45:06.088Z,-3.15
2023-12-05T23:47:34.302Z,-3.16
2023-12-05T23:50:02.513Z,-3.18
2023-12-05T23:52:30.720Z,-3.19
2023-12-05T23:54:59.129Z,-3.19
2023-12-05T23:57:27.330Z,-3.19
2023-12-05T23:59:56.158Z,-3.19
